sensor_id;sensor_type;location;lat;lon;timestamp;pressure;altitude;pressure_sealevel;temperature;humidity
17607;BME280;8922;52.240;20.980;2023-02-04T00:00:37;99635.59;;;-0.66;83.09
17607;BME280;8922;52.240;20.980;2023-02-04T00:03:07;99631.28;;;-0.70;83.22
17607;BME280;8922;52.240;20.980;2023-02-04T00:05:35;99650.63;;;-0.70;83.26
17607;BME280;8922;52.240;20.980;2023-02-04T00:08:04;99655.69;;;-0.70;83.33
17607;BME280;8922;52.240;20.980;2023-02-04T00:10:33;99668.34;;;-0.70;83.63
17607;BME280;8922;52.240;20.980;2023-02-04T00:13:01;99669.16;;;-0.71;83.64
17607;BME280;8922;52.240;20.980;2023-02-04T00:15:30;99684.41;;;-0.70;83.40
17607;BME280;8922;52.240;20.980;2023-02-04T00:17:58;99692.00;;;-0.70;83.77
17607;BME280;8922;52.240;20.980;2023-02-04T00:20:28;99709.66;;;-0.71;83.65
17607;BME280;8922;52.240;20.980;2023-02-04T00:22:57;99710.50;;;-0.71;83.69
17607;BME280;8922;52.240;20.980;2023-02-04T00:25:25;99714.75;;;-0.70;83.62
17607;BME280;8922;52.240;20.980;2023-02-04T00:27:54;99713.84;;;-0.72;83.60
17607;BME280;8922;52.240;20.980;2023-02-04T00:30:22;99725.69;;;-0.71;84.13
17607;BME280;8922;52.240;20.980;2023-02-04T00:32:51;99718.91;;;-0.72;83.88
17607;BME280;8922;52.240;20.980;2023-02-04T00:35:21;99721.41;;;-0.74;83.85
17607;BME280;8922;52.240;20.980;2023-02-04T00:37:51;99739.03;;;-0.77;83.79
17607;BME280;8922;52.240;20.980;2023-02-04T00:40:22;99746.53;;;-0.80;83.85
17607;BME280;8922;52.240;20.980;2023-02-04T00:42:50;99753.97;;;-0.84;84.04
17607;BME280;8922;52.240;20.980;2023-02-04T00:45:19;99762.28;;;-0.88;84.30
17607;BME280;8922;52.240;20.980;2023-02-04T00:47:47;99770.63;;;-0.91;84.55
17607;BME280;8922;52.240;20.980;2023-02-04T00:50:16;99780.75;;;-0.91;84.39
17607;BME280;8922;52.240;20.980;2023-02-04T00:52:45;99779.03;;;-0.92;84.69
17607;BME280;8922;52.240;20.980;2023-02-04T00:55:15;99780.75;;;-0.91;84.57
17607;BME280;8922;52.240;20.980;2023-02-04T00:57:44;99794.97;;;-0.94;84.51
17607;BME280;8922;52.240;20.980;2023-02-04T01:00:16;99800.06;;;-0.93;84.43
17607;BME280;8922;52.240;20.980;2023-02-04T01:02:45;99817.72;;;-0.94;84.34
17607;BME280;8922;52.240;20.980;2023-02-04T01:05:13;99829.47;;;-0.97;84.68
17607;BME280;8922;52.240;20.980;2023-02-04T01:07:42;99834.50;;;-0.97;84.55
17607;BME280;8922;52.240;20.980;2023-02-04T01:10:10;99837.75;;;-1.01;84.22
17607;BME280;8922;52.240;20.980;2023-02-04T01:12:40;99849.66;;;-0.98;84.32
17607;BME280;8922;52.240;20.980;2023-02-04T01:15:10;99852.22;;;-0.97;84.15
17607;BME280;8922;52.240;20.980;2023-02-04T01:17:38;99862.31;;;-0.97;84.37
17607;BME280;8922;52.240;20.980;2023-02-04T01:20:09;99872.41;;;-0.98;84.50
17607;BME280;8922;52.240;20.980;2023-02-04T01:22:38;99880.84;;;-0.98;84.36
17607;BME280;8922;52.240;20.980;2023-02-04T01:25:07;99875.81;;;-0.96;83.80
17607;BME280;8922;52.240;20.980;2023-02-04T01:27:35;99891.16;;;-0.91;83.99
17607;BME280;8922;52.240;20.980;2023-02-04T01:30:07;99893.69;;;-0.91;83.69
17607;BME280;8922;52.240;20.980;2023-02-04T01:32:35;99904.00;;;-0.85;83.85
17607;BME280;8922;52.240;20.980;2023-02-04T01:35:04;99917.56;;;-0.83;84.25
17607;BME280;8922;52.240;20.980;2023-02-04T01:37:33;99920.09;;;-0.83;83.67
17607;BME280;8922;52.240;20.980;2023-02-04T01:40:02;99928.56;;;-0.81;83.28
17607;BME280;8922;52.240;20.980;2023-02-04T01:42:31;99934.44;;;-0.82;83.00
17607;BME280;8922;52.240;20.980;2023-02-04T01:44:59;99939.56;;;-0.81;83.03
17607;BME280;8922;52.240;20.980;2023-02-04T01:47:29;99954.69;;;-0.82;82.66
17607;BME280;8922;52.240;20.980;2023-02-04T01:49:58;99968.25;;;-0.80;83.00
17607;BME280;8922;52.240;20.980;2023-02-04T01:52:28;99968.19;;;-0.82;83.18
17607;BME280;8922;52.240;20.980;2023-02-04T01:54:58;99979.16;;;-0.81;82.64
17607;BME280;8922;52.240;20.980;2023-02-04T01:57:26;99995.16;;;-0.82;82.91
17607;BME280;8922;52.240;20.980;2023-02-04T01:59:55;100003.59;;;-0.82;82.66
17607;BME280;8922;52.240;20.980;2023-02-04T02:02:41;100002.69;;;-0.84;82.92
17607;BME280;8922;52.240;20.980;2023-02-04T02:05:13;100019.59;;;-0.83;82.66
17607;BME280;8922;52.240;20.980;2023-02-04T02:07:42;100014.44;;;-0.86;82.73
17607;BME280;8922;52.240;20.980;2023-02-04T02:10:12;100028.00;;;-0.84;82.65
17607;BME280;8922;52.240;20.980;2023-02-04T02:12:42;100036.56;;;-0.80;82.92
17607;BME280;8922;52.240;20.980;2023-02-04T02:15:12;100044.13;;;-0.80;82.57
17607;BME280;8922;52.240;20.980;2023-02-04T02:17:42;100055.03;;;-0.81;82.54
17607;BME280;8922;52.240;20.980;2023-02-04T02:20:14;100078.72;;;-0.79;82.16
17607;BME280;8922;52.240;20.980;2023-02-04T02:22:54;100092.25;;;-0.79;82.09
17607;BME280;8922;52.240;20.980;2023-02-04T02:25:26;100093.09;;;-0.78;81.75
17607;BME280;8922;52.240;20.980;2023-02-04T02:27:56;100105.75;;;-0.78;82.19
17607;BME280;8922;52.240;20.980;2023-02-04T02:30:26;100116.78;;;-0.76;81.88
17607;BME280;8922;52.240;20.980;2023-02-04T02:32:56;100126.91;;;-0.76;81.85
17607;BME280;8922;52.240;20.980;2023-02-04T02:35:25;100128.41;;;-0.81;81.66
17607;BME280;8922;52.240;20.980;2023-02-04T02:37:53;100142.94;;;-0.76;81.48
17607;BME280;8922;52.240;20.980;2023-02-04T02:40:22;100148.03;;;-0.74;81.15
17607;BME280;8922;52.240;20.980;2023-02-04T02:42:53;100155.63;;;-0.74;81.33
17607;BME280;8922;52.240;20.980;2023-02-04T02:45:25;100172.56;;;-0.73;81.16
17607;BME280;8922;52.240;20.980;2023-02-04T02:47:56;100178.53;;;-0.71;80.87
17607;BME280;8922;52.240;20.980;2023-02-04T02:50:29;100182.78;;;-0.70;80.96
17607;BME280;8922;52.240;20.980;2023-02-04T02:52:59;100199.63;;;-0.70;81.06
17607;BME280;8922;52.240;20.980;2023-02-04T02:55:28;100214.88;;;-0.69;80.53
17607;BME280;8922;52.240;20.980;2023-02-04T02:57:58;100217.44;;;-0.67;80.54
17607;BME280;8922;52.240;20.980;2023-02-04T03:00:28;100225.09;;;-0.66;80.53
17607;BME280;8922;52.240;20.980;2023-02-04T03:03:00;100231.16;;;-0.62;80.48
17607;BME280;8922;52.240;20.980;2023-02-04T03:05:36;100235.44;;;-0.60;80.34
17607;BME280;8922;52.240;20.980;2023-02-04T03:08:07;100233.72;;;-0.61;80.19
17607;BME280;8922;52.240;20.980;2023-02-04T03:10:37;100243.94;;;-0.58;80.07
17607;BME280;8922;52.240;20.980;2023-02-04T03:13:07;100254.91;;;-0.59;79.87
17607;BME280;8922;52.240;20.980;2023-02-04T03:15:36;100257.41;;;-0.59;79.94
17607;BME280;8922;52.240;20.980;2023-02-04T03:18:04;100263.34;;;-0.58;79.68
17607;BME280;8922;52.240;20.980;2023-02-04T03:20:33;100287.84;;;-0.57;79.76
17607;BME280;8922;52.240;20.980;2023-02-04T03:23:02;100298.00;;;-0.56;80.01
17607;BME280;8922;52.240;20.980;2023-02-04T03:25:31;100295.41;;;-0.57;79.94
17607;BME280;8922;52.240;20.980;2023-02-04T03:27:59;100308.06;;;-0.57;79.83
17607;BME280;8922;52.240;20.980;2023-02-04T03:30:29;100326.66;;;-0.57;79.89
17607;BME280;8922;52.240;20.980;2023-02-04T03:32:59;100336.78;;;-0.57;80.07
17607;BME280;8922;52.240;20.980;2023-02-04T03:35:28;100335.06;;;-0.58;80.14
17607;BME280;8922;52.240;20.980;2023-02-04T03:37:56;100354.44;;;-0.58;80.21
17607;BME280;8922;52.240;20.980;2023-02-04T03:40:25;100361.22;;;-0.57;80.48
17607;BME280;8922;52.240;20.980;2023-02-04T03:42:53;100355.31;;;-0.58;80.43
17607;BME280;8922;52.240;20.980;2023-02-04T03:45:21;100374.59;;;-0.60;80.18
17607;BME280;8922;52.240;20.980;2023-02-04T03:47:52;100384.72;;;-0.60;80.11
17607;BME280;8922;52.240;20.980;2023-02-04T03:50:20;100387.25;;;-0.60;79.95
17607;BME280;8922;52.240;20.980;2023-02-04T03:52:49;100394.00;;;-0.60;80.03
17607;BME280;8922;52.240;20.980;2023-02-04T03:55:19;100399.00;;;-0.62;79.50
17607;BME280;8922;52.240;20.980;2023-02-04T03:57:47;100405.66;;;-0.64;79.83
17607;BME280;8922;52.240;20.980;2023-02-04T04:00:16;100425.00;;;-0.66;79.38
17607;BME280;8922;52.240;20.980;2023-02-04T04:02:45;100427.53;;;-0.66;79.28
17607;BME280;8922;52.240;20.980;2023-02-04T04:05:15;100439.25;;;-0.68;78.94
17607;BME280;8922;52.240;20.980;2023-02-04T04:07:43;100448.34;;;-0.73;78.70
17607;BME280;8922;52.240;20.980;2023-02-04T04:10:12;100459.13;;;-0.77;78.85
17607;BME280;8922;52.240;20.980;2023-02-04T04:12:40;100456.25;;;-0.85;78.47
17607;BME280;8922;52.240;20.980;2023-02-04T04:15:09;100474.66;;;-0.89;78.48
17607;BME280;8922;52.240;20.980;2023-02-04T04:17:37;100481.31;;;-0.91;78.78
17607;BME280;8922;52.240;20.980;2023-02-04T04:20:07;100489.59;;;-0.95;78.75
17607;BME280;8922;52.240;20.980;2023-02-04T04:22:37;100498.72;;;-0.99;78.77
17607;BME280;8922;52.240;20.980;2023-02-04T04:25:07;100505.31;;;-1.02;78.97
17607;BME280;8922;52.240;20.980;2023-02-04T04:27:35;100508.44;;;-1.08;78.74
17607;BME280;8922;52.240;20.980;2023-02-04T04:30:05;100516.81;;;-1.09;79.08
17607;BME280;8922;52.240;20.980;2023-02-04T04:32:34;100534.38;;;-1.12;78.81
17607;BME280;8922;52.240;20.980;2023-02-04T04:35:02;100548.50;;;-1.17;79.10
17607;BME280;8922;52.240;20.980;2023-02-04T04:37:30;100558.75;;;-1.14;79.42
17607;BME280;8922;52.240;20.980;2023-02-04T04:40:02;100563.88;;;-1.12;79.67
17607;BME280;8922;52.240;20.980;2023-02-04T04:42:30;100569.88;;;-1.10;79.98
17607;BME280;8922;52.240;20.980;2023-02-04T04:44:58;100575.94;;;-1.07;79.73
17607;BME280;8922;52.240;20.980;2023-02-04T04:47:27;100578.56;;;-1.04;79.87
17607;BME280;8922;52.240;20.980;2023-02-04T04:49:55;100581.94;;;-1.03;79.57
17607;BME280;8922;52.240;20.980;2023-02-04T04:52:24;100598.13;;;-1.00;79.51
17607;BME280;8922;52.240;20.980;2023-02-04T04:54:52;100607.50;;;-0.97;79.67
17607;BME280;8922;52.240;20.980;2023-02-04T04:57:22;100594.97;;;-0.95;79.70
17607;BME280;8922;52.240;20.980;2023-02-04T04:59:51;100608.66;;;-0.90;79.88
17607;BME280;8922;52.240;20.980;2023-02-04T05:02:19;100628.28;;;-0.85;79.52
17607;BME280;8922;52.240;20.980;2023-02-04T05:04:48;100624.97;;;-0.84;79.13
17607;BME280;8922;52.240;20.980;2023-02-04T05:07:16;100635.34;;;-0.78;79.22
17607;BME280;8922;52.240;20.980;2023-02-04T05:09:45;100637.94;;;-0.76;79.19
17607;BME280;8922;52.240;20.980;2023-02-04T05:12:13;100638.09;;;-0.73;79.28
17607;BME280;8922;52.240;20.980;2023-02-04T05:14:43;100649.94;;;-0.72;79.34
17607;BME280;8922;52.240;20.980;2023-02-04T05:17:11;100661.00;;;-0.70;78.64
17607;BME280;8922;52.240;20.980;2023-02-04T05:19:39;100673.75;;;-0.67;78.90
17607;BME280;8922;52.240;20.980;2023-02-04T05:22:08;100668.69;;;-0.67;78.80
17607;BME280;8922;52.240;20.980;2023-02-04T05:24:36;100678.03;;;-0.66;78.71
17607;BME280;8922;52.240;20.980;2023-02-04T05:27:05;100690.03;;;-0.62;79.37
17607;BME280;8922;52.240;20.980;2023-02-04T05:29:33;100702.00;;;-0.58;78.92
17607;BME280;8922;52.240;20.980;2023-02-04T05:32:03;100703.75;;;-0.57;78.51
17607;BME280;8922;52.240;20.980;2023-02-04T05:34:32;100709.75;;;-0.55;78.40
17607;BME280;8922;52.240;20.980;2023-02-04T05:37:00;100714.81;;;-0.55;78.45
17607;BME280;8922;52.240;20.980;2023-02-04T05:39:29;100724.94;;;-0.55;78.26
17607;BME280;8922;52.240;20.980;2023-02-04T05:41:57;100725.84;;;-0.53;78.10
17607;BME280;8922;52.240;20.980;2023-02-04T05:44:25;100740.38;;;-0.49;78.08
17607;BME280;8922;52.240;20.980;2023-02-04T05:46:54;100747.19;;;-0.47;77.81
17607;BME280;8922;52.240;20.980;2023-02-04T05:49:24;100748.97;;;-0.45;77.80
17607;BME280;8922;52.240;20.980;2023-02-04T05:51:52;100757.41;;;-0.44;77.58
17607;BME280;8922;52.240;20.980;2023-02-04T05:54:21;100765.81;;;-0.45;77.23
17607;BME280;8922;52.240;20.980;2023-02-04T05:56:49;100781.72;;;-0.48;76.73
17607;BME280;8922;52.240;20.980;2023-02-04T05:59:17;100789.28;;;-0.50;76.24
17607;BME280;8922;52.240;20.980;2023-02-04T06:01:46;100801.78;;;-0.53;76.40
17607;BME280;8922;52.240;20.980;2023-02-04T06:04:14;100819.50;;;-0.53;76.33
17607;BME280;8922;52.240;20.980;2023-02-04T06:06:45;100825.38;;;-0.54;76.03
17607;BME280;8922;52.240;20.980;2023-02-04T06:09:13;100827.09;;;-0.53;75.96
17607;BME280;8922;52.240;20.980;2023-02-04T06:11:42;100840.63;;;-0.52;75.99
17607;BME280;8922;52.240;20.980;2023-02-04T06:14:11;100856.66;;;-0.52;75.72
17607;BME280;8922;52.240;20.980;2023-02-04T06:16:39;100857.31;;;-0.56;75.66
17607;BME280;8922;52.240;20.980;2023-02-04T06:19:07;100858.13;;;-0.57;75.58
17607;BME280;8922;52.240;20.980;2023-02-04T06:21:36;100875.13;;;-0.54;75.57
17607;BME280;8922;52.240;20.980;2023-02-04T06:24:06;100885.25;;;-0.54;75.41
17607;BME280;8922;52.240;20.980;2023-02-04T06:26:34;100879.97;;;-0.59;75.06
17607;BME280;8922;52.240;20.980;2023-02-04T06:29:03;100884.91;;;-0.62;75.27
17607;BME280;8922;52.240;20.980;2023-02-04T06:31:31;100898.97;;;-0.67;74.88
17607;BME280;8922;52.240;20.980;2023-02-04T06:34:00;100904.69;;;-0.71;74.78
17607;BME280;8922;52.240;20.980;2023-02-04T06:36:28;100916.28;;;-0.76;74.39
17607;BME280;8922;52.240;20.980;2023-02-04T06:38:57;100915.97;;;-0.82;74.70
17607;BME280;8922;52.240;20.980;2023-02-04T06:41:27;100923.50;;;-0.84;74.68
17607;BME280;8922;52.240;20.980;2023-02-04T06:43:55;100929.19;;;-0.88;74.71
17607;BME280;8922;52.240;20.980;2023-02-04T06:46:24;100931.63;;;-0.89;74.72
17607;BME280;8922;52.240;20.980;2023-02-04T06:48:52;100939.72;;;-0.97;74.45
17607;BME280;8922;52.240;20.980;2023-02-04T06:51:21;100941.06;;;-1.03;74.77
17607;BME280;8922;52.240;20.980;2023-02-04T06:53:49;100955.38;;;-1.04;74.61
17607;BME280;8922;52.240;20.980;2023-02-04T06:56:18;100955.25;;;-1.07;75.14
17607;BME280;8922;52.240;20.980;2023-02-04T06:58:48;100975.63;;;-1.04;75.07
17607;BME280;8922;52.240;20.980;2023-02-04T07:01:16;100975.88;;;-0.99;75.01
17607;BME280;8922;52.240;20.980;2023-02-04T07:03:45;100985.34;;;-0.95;75.17
17607;BME280;8922;52.240;20.980;2023-02-04T07:06:13;100992.28;;;-0.91;74.59
17607;BME280;8922;52.240;20.980;2023-02-04T07:08:41;100990.19;;;-0.82;74.56
17607;BME280;8922;52.240;20.980;2023-02-04T07:11:10;101002.63;;;-0.70;74.52
17607;BME280;8922;52.240;20.980;2023-02-04T07:13:38;101016.50;;;-0.62;73.88
17607;BME280;8922;52.240;20.980;2023-02-04T07:16:08;101018.53;;;-0.55;73.79
17607;BME280;8922;52.240;20.980;2023-02-04T07:18:36;101019.78;;;-0.46;73.41
17607;BME280;8922;52.240;20.980;2023-02-04T07:21:05;101032.00;;;-0.38;72.49
17607;BME280;8922;52.240;20.980;2023-02-04T07:23:33;101035.00;;;-0.29;72.14
17607;BME280;8922;52.240;20.980;2023-02-04T07:26:02;101040.47;;;-0.19;72.19
17607;BME280;8922;52.240;20.980;2023-02-04T07:28:30;101042.66;;;-0.09;71.43
17607;BME280;8922;52.240;20.980;2023-02-04T07:30:58;101050.72;;;0.00;70.94
17607;BME280;8922;52.240;20.980;2023-02-04T07:33:28;101056.75;;;0.04;70.18
17607;BME280;8922;52.240;20.980;2023-02-04T07:35:57;101060.44;;;0.10;70.25
17607;BME280;8922;52.240;20.980;2023-02-04T07:38:25;101067.63;;;0.19;69.65
17607;BME280;8922;52.240;20.980;2023-02-04T07:40:54;101070.72;;;0.31;68.79
17607;BME280;8922;52.240;20.980;2023-02-04T07:43:22;101088.31;;;0.46;68.86
17607;BME280;8922;52.240;20.980;2023-02-04T07:45:51;101079.59;;;0.59;68.61
17607;BME280;8922;52.240;20.980;2023-02-04T07:48:19;101083.75;;;0.76;67.59
17607;BME280;8922;52.240;20.980;2023-02-04T07:50:49;101082.56;;;0.87;67.28
17607;BME280;8922;52.240;20.980;2023-02-04T07:53:18;101094.91;;;0.99;66.30
17607;BME280;8922;52.240;20.980;2023-02-04T07:55:46;101103.13;;;1.13;65.92
17607;BME280;8922;52.240;20.980;2023-02-04T07:58:14;101103.00;;;1.29;65.05
17607;BME280;8922;52.240;20.980;2023-02-04T08:00:43;101107.56;;;1.36;63.94
17607;BME280;8922;52.240;20.980;2023-02-04T08:03:11;101113.69;;;1.41;63.09
17607;BME280;8922;52.240;20.980;2023-02-04T08:05:40;101123.22;;;1.47;63.62
17607;BME280;8922;52.240;20.980;2023-02-04T08:08:10;101122.00;;;1.58;62.96
17607;BME280;8922;52.240;20.980;2023-02-04T08:10:38;101128.47;;;1.71;62.05
17607;BME280;8922;52.240;20.980;2023-02-04T08:13:07;101122.84;;;1.78;61.20
17607;BME280;8922;52.240;20.980;2023-02-04T08:15:35;101117.47;;;1.91;61.46
17607;BME280;8922;52.240;20.980;2023-02-04T08:18:04;101124.75;;;2.05;60.04
17607;BME280;8922;52.240;20.980;2023-02-04T08:20:32;101121.31;;;2.03;60.19
17607;BME280;8922;52.240;20.980;2023-02-04T08:23:01;101142.16;;;2.16;60.23
17607;BME280;8922;52.240;20.980;2023-02-04T08:25:30;101153.28;;;2.18;59.19
17607;BME280;8922;52.240;20.980;2023-02-04T08:27:59;101144.09;;;2.22;59.31
17607;BME280;8922;52.240;20.980;2023-02-04T08:30:27;101157.94;;;2.29;58.57
17607;BME280;8922;52.240;20.980;2023-02-04T08:32:57;101162.34;;;2.33;57.92
17607;BME280;8922;52.240;20.980;2023-02-04T08:35:25;101169.16;;;2.34;58.30
17607;BME280;8922;52.240;20.980;2023-02-04T08:37:53;101177.66;;;2.34;57.95
17607;BME280;8922;52.240;20.980;2023-02-04T08:40:22;101172.69;;;2.37;57.38
17607;BME280;8922;52.240;20.980;2023-02-04T08:42:52;101182.28;;;2.45;57.12
17607;BME280;8922;52.240;20.980;2023-02-04T08:45:20;101181.66;;;2.50;58.03
17607;BME280;8922;52.240;20.980;2023-02-04T08:47:49;101180.47;;;2.63;56.24
17607;BME280;8922;52.240;20.980;2023-02-04T08:50:18;101176.63;;;2.73;56.80
17607;BME280;8922;52.240;20.980;2023-02-04T08:52:47;101172.25;;;2.93;56.67
17607;BME280;8922;52.240;20.980;2023-02-04T08:55:15;101166.53;;;2.98;54.93
17607;BME280;8922;52.240;20.980;2023-02-04T08:57:44;101164.88;;;2.99;53.96
17607;BME280;8922;52.240;20.980;2023-02-04T09:00:15;101168.19;;;2.98;54.64
17607;BME280;8922;52.240;20.980;2023-02-04T09:02:44;101172.13;;;3.12;57.42
17607;BME280;8922;52.240;20.980;2023-02-04T09:05:12;101175.84;;;3.94;54.81
17607;BME280;8922;52.240;20.980;2023-02-04T09:07:40;101172.22;;;6.57;54.36
17607;BME280;8922;52.240;20.980;2023-02-04T09:10:09;101164.50;;;9.64;40.25
17607;BME280;8922;52.240;20.980;2023-02-04T09:12:38;101162.38;;;12.53;36.54
17607;BME280;8922;52.240;20.980;2023-02-04T09:15:08;101159.63;;;15.22;29.09
17607;BME280;8922;52.240;20.980;2023-02-04T09:17:38;101158.75;;;16.87;25.25
17607;BME280;8922;52.240;20.980;2023-02-04T09:20:11;101160.25;;;18.48;22.87
17607;BME280;8922;52.240;20.980;2023-02-04T09:22:40;101160.16;;;19.74;20.66
17607;BME280;8922;52.240;20.980;2023-02-04T09:25:08;101163.66;;;20.53;19.69
17607;BME280;8922;52.240;20.980;2023-02-04T09:27:37;101163.47;;;21.53;19.07
17607;BME280;8922;52.240;20.980;2023-02-04T09:30:06;101159.72;;;23.05;17.61
17607;BME280;8922;52.240;20.980;2023-02-04T09:32:35;101157.59;;;23.87;16.37
17607;BME280;8922;52.240;20.980;2023-02-04T09:35:06;101169.81;;;24.42;15.88
17607;BME280;8922;52.240;20.980;2023-02-04T09:37:34;101175.72;;;25.13;15.00
17607;BME280;8922;52.240;20.980;2023-02-04T09:40:03;101177.81;;;26.01;15.04
17607;BME280;8922;52.240;20.980;2023-02-04T09:42:33;101175.34;;;27.02;13.87
17607;BME280;8922;52.240;20.980;2023-02-04T09:45:02;101174.56;;;27.69;13.86
17607;BME280;8922;52.240;20.980;2023-02-04T09:47:30;101179.53;;;28.28;12.94
17607;BME280;8922;52.240;20.980;2023-02-04T09:49:59;101190.03;;;28.68;12.76
17607;BME280;8922;52.240;20.980;2023-02-04T09:52:29;101191.19;;;29.28;12.05
17607;BME280;8922;52.240;20.980;2023-02-04T09:54:57;101193.59;;;29.92;11.65
17607;BME280;8922;52.240;20.980;2023-02-04T09:57:26;101188.72;;;30.56;11.29
17607;BME280;8922;52.240;20.980;2023-02-04T09:59:56;101201.84;;;31.15;11.45
17607;BME280;8922;52.240;20.980;2023-02-04T10:02:25;101197.13;;;31.41;11.16
17607;BME280;8922;52.240;20.980;2023-02-04T10:04:56;101193.56;;;31.84;10.82
17607;BME280;8922;52.240;20.980;2023-02-04T10:07:24;101197.75;;;32.09;10.39
17607;BME280;8922;52.240;20.980;2023-02-04T10:09:55;101205.28;;;32.25;10.06
17607;BME280;8922;52.240;20.980;2023-02-04T10:12:24;101205.31;;;32.46;9.76
17607;BME280;8922;52.240;20.980;2023-02-04T10:14:53;101203.75;;;32.22;9.71
17607;BME280;8922;52.240;20.980;2023-02-04T10:17:21;101195.56;;;32.56;9.68
17607;BME280;8922;52.240;20.980;2023-02-04T10:19:50;101200.47;;;32.82;9.41
17607;BME280;8922;52.240;20.980;2023-02-04T10:22:20;101202.97;;;33.14;9.41
17607;BME280;8922;52.240;20.980;2023-02-04T10:24:49;101205.56;;;32.64;9.46
17607;BME280;8922;52.240;20.980;2023-02-04T10:27:19;101215.88;;;31.40;9.55
17607;BME280;8922;52.240;20.980;2023-02-04T10:29:55;101218.28;;;30.29;10.11
17607;BME280;8922;52.240;20.980;2023-02-04T10:32:29;101238.94;;;29.77;10.99
17607;BME280;8922;52.240;20.980;2023-02-04T10:35:00;101233.59;;;29.17;10.83
17607;BME280;8922;52.240;20.980;2023-02-04T10:37:29;101241.22;;;29.21;10.59
17607;BME280;8922;52.240;20.980;2023-02-04T10:39:58;101250.63;;;28.49;10.89
17607;BME280;8922;52.240;20.980;2023-02-04T10:42:30;101244.53;;;27.80;11.33
17607;BME280;8922;52.240;20.980;2023-02-04T10:44:58;101253.56;;;26.47;11.59
17607;BME280;8922;52.240;20.980;2023-02-04T10:47:29;101254.13;;;24.05;13.65
17607;BME280;8922;52.240;20.980;2023-02-04T10:50:01;101266.59;;;21.77;15.21
17607;BME280;8922;52.240;20.980;2023-02-04T10:52:35;101279.50;;;19.46;17.18
17607;BME280;8922;52.240;20.980;2023-02-04T10:55:10;101280.38;;;17.26;19.14
17607;BME280;8922;52.240;20.980;2023-02-04T10:57:45;101280.69;;;15.31;21.25
17607;BME280;8922;52.240;20.980;2023-02-04T11:00:17;101281.88;;;13.80;22.79
17607;BME280;8922;52.240;20.980;2023-02-04T11:02:53;101288.19;;;12.39;24.38
17607;BME280;8922;52.240;20.980;2023-02-04T11:05:30;101282.56;;;11.17;26.28
17607;BME280;8922;52.240;20.980;2023-02-04T11:07:59;101297.03;;;10.02;27.60
17607;BME280;8922;52.240;20.980;2023-02-04T11:10:32;101287.47;;;9.23;28.97
17607;BME280;8922;52.240;20.980;2023-02-04T11:13:05;101286.69;;;9.27;30.66
17607;BME280;8922;52.240;20.980;2023-02-04T11:15:43;101283.56;;;8.89;30.54
17607;BME280;8922;52.240;20.980;2023-02-04T11:18:27;101297.38;;;8.97;32.03
17607;BME280;8922;52.240;20.980;2023-02-04T11:20:58;101281.63;;;10.06;30.86
17607;BME280;8922;52.240;20.980;2023-02-04T11:23:34;101282.06;;;11.99;29.89
17607;BME280;8922;52.240;20.980;2023-02-04T11:26:08;101266.53;;;13.38;26.71
17607;BME280;8922;52.240;20.980;2023-02-04T11:28:54;101274.28;;;13.41;25.20
17607;BME280;8922;52.240;20.980;2023-02-04T11:31:55;101276.06;;;13.24;24.76
17607;BME280;8922;52.240;20.980;2023-02-04T11:34:28;101292.50;;;12.42;25.95
17607;BME280;8922;52.240;20.980;2023-02-04T11:37:11;101299.97;;;11.54;26.75
17607;BME280;8922;52.240;20.980;2023-02-04T11:39:44;101298.34;;;10.42;28.50
17607;BME280;8922;52.240;20.980;2023-02-04T11:42:21;101310.97;;;9.49;31.41
17607;BME280;8922;52.240;20.980;2023-02-04T11:44:54;101311.38;;;8.61;31.87
17607;BME280;8922;52.240;20.980;2023-02-04T11:47:26;101306.94;;;8.06;33.22
17607;BME280;8922;52.240;20.980;2023-02-04T11:50:03;101314.69;;;8.07;34.17
17607;BME280;8922;52.240;20.980;2023-02-04T11:52:42;101318.09;;;8.53;36.24
17607;BME280;8922;52.240;20.980;2023-02-04T11:55:11;101314.78;;;9.13;33.43
17607;BME280;8922;52.240;20.980;2023-02-04T11:57:41;101316.06;;;8.84;33.13
17607;BME280;8922;52.240;20.980;2023-02-04T12:00:18;101308.75;;;8.11;34.35
17607;BME280;8922;52.240;20.980;2023-02-04T12:02:49;101323.75;;;7.91;36.32
17607;BME280;8922;52.240;20.980;2023-02-04T12:05:20;101325.84;;;7.67;36.31
17607;BME280;8922;52.240;20.980;2023-02-04T12:07:49;101337.97;;;7.36;36.54
17607;BME280;8922;52.240;20.980;2023-02-04T12:10:25;101332.91;;;7.00;37.87
17607;BME280;8922;52.240;20.980;2023-02-04T12:12:55;101328.31;;;6.88;37.59
17607;BME280;8922;52.240;20.980;2023-02-04T12:15:32;101335.81;;;6.46;38.92
17607;BME280;8922;52.240;20.980;2023-02-04T12:18:04;101330.28;;;5.99;40.00
17607;BME280;8922;52.240;20.980;2023-02-04T12:20:34;101335.94;;;5.58;40.40
17607;BME280;8922;52.240;20.980;2023-02-04T12:23:04;101331.13;;;5.12;41.38
17607;BME280;8922;52.240;20.980;2023-02-04T12:25:32;101342.78;;;4.78;41.95
17607;BME280;8922;52.240;20.980;2023-02-04T12:28:01;101354.75;;;4.54;42.34
17607;BME280;8922;52.240;20.980;2023-02-04T12:30:31;101344.41;;;4.25;43.46
17607;BME280;8922;52.240;20.980;2023-02-04T12:32:59;101352.72;;;3.96;43.81
17607;BME280;8922;52.240;20.980;2023-02-04T12:35:28;101360.03;;;3.64;44.30
17607;BME280;8922;52.240;20.980;2023-02-04T12:37:57;101370.22;;;3.42;44.74
17607;BME280;8922;52.240;20.980;2023-02-04T12:40:26;101368.72;;;3.24;45.79
17607;BME280;8922;52.240;20.980;2023-02-04T12:42:54;101373.13;;;3.07;46.22
17607;BME280;8922;52.240;20.980;2023-02-04T12:45:23;101379.97;;;2.87;46.84
17607;BME280;8922;52.240;20.980;2023-02-04T12:47:53;101377.75;;;2.76;47.54
17607;BME280;8922;52.240;20.980;2023-02-04T12:50:21;101383.47;;;2.70;47.84
17607;BME280;8922;52.240;20.980;2023-02-04T12:52:53;101374.84;;;2.66;48.28
17607;BME280;8922;52.240;20.980;2023-02-04T12:55:24;101369.91;;;2.50;48.12
17607;BME280;8922;52.240;20.980;2023-02-04T12:57:53;101381.91;;;2.33;48.13
17607;BME280;8922;52.240;20.980;2023-02-04T13:00:23;101379.63;;;2.20;48.51
17607;BME280;8922;52.240;20.980;2023-02-04T13:02:54;101393.63;;;2.10;48.95
17607;BME280;8922;52.240;20.980;2023-02-04T13:05:26;101388.13;;;2.01;48.88
17607;BME280;8922;52.240;20.980;2023-02-04T13:07:55;101405.56;;;1.93;49.05